Terminal Aerodrome Forecast
Issued by NWS

Home | Current Version | Previous Version | Text Only | Print | Product List | Glossary On
Versions: 1 2 3 4 5 6 7 8 9 10 11 12 13 14 15 16
000
FTUS43 KMKX 200538
TAFENW
TAF
KENW 200538Z 2006/2106 13005KT P6SM SCT250
     FM201200 14006KT 5SM BR BKN200
     FM201700 15011G18KT P6SM OVC130
     FM210000 16012KT 5SM -SHRA BR OVC090 WS020/17045KT
     FM210400 19011KT 3SM -SHRA BR OVC040 WS020/20045KT=

USA.gov is the U.S. government's official web portal to all federal, state and local government web resources and services.